Time;durP1;ratioP1;P1;durP2;ratioP2;P2;SDS_P1;SDS_P2;PMS_P1;PMS_P2;Temp;Humidity;BMP_temperature;BMP_pressure;BME280_temperature;BME280_humidity;BME280_pressure;Samples;Min_cycle;Max_cycle;Signal;HPM_P1;HPM_P2
2021/01/19 00:01:50;;;;;;;33.80;15.43;;;;;;;-12.38;54.79;99663.42;1727621;81;21126;-39
2021/01/19 00:04:18;;;;;;;33.45;16.55;;;;;;;-12.43;55.03;99667.64;1726446;81;21130;-39
2021/01/19 00:06:47;;;;;;;33.33;15.95;;;;;;;-12.50;55.22;99672.09;1726376;81;21181;-39
2021/01/19 00:09:15;;;;;;;34.35;17.23;;;;;;;-12.42;55.49;99664.83;1723356;81;21205;-39
2021/01/19 00:11:44;;;;;;;35.25;17.25;;;;;;;-12.30;55.29;99662.91;1734241;81;21227;-39
2021/01/19 00:14:12;;;;;;;31.85;16.35;;;;;;;-12.34;55.25;99656.77;1722200;81;21038;-39
2021/01/19 00:16:40;;;;;;;38.63;17.05;;;;;;;-12.27;55.19;99659.38;1739641;81;21118;-39
2021/01/19 00:19:09;;;;;;;36.28;17.17;;;;;;;-12.21;55.10;99650.73;1736432;81;21126;-39
2021/01/19 00:21:37;;;;;;;28.77;14.60;;;;;;;-12.13;55.03;99654.92;1742305;81;21182;-39
2021/01/19 00:24:06;;;;;;;34.08;16.15;;;;;;;-12.10;54.81;99654.00;1722213;81;21200;-39
2021/01/19 00:26:37;;;;;;;28.67;14.63;;;;;;;-12.07;54.80;99658.83;1750972;81;21138;-39
2021/01/19 00:29:05;;;;;;;27.35;14.03;;;;;;;-12.03;54.69;99663.94;1726768;81;21613;-39
2021/01/19 00:31:34;;;;;;;31.93;15.32;;;;;;;-12.09;54.61;99663.45;1709406;81;21960;-39
2021/01/19 00:34:02;;;;;;;29.82;14.07;;;;;;;-12.15;54.81;99660.88;1705583;82;21155;-39
2021/01/19 00:36:30;;;;;;;30.68;15.20;;;;;;;-12.23;55.04;99662.38;1713030;82;22468;-39
2021/01/19 00:38:58;;;;;;;32.10;15.15;;;;;;;-12.28;55.12;99659.08;1704010;82;21497;-39
2021/01/19 00:41:27;;;;;;;30.25;16.25;;;;;;;-12.21;55.24;99653.84;1703379;82;21407;-39
2021/01/19 00:43:55;;;;;;;25.32;13.50;;;;;;;-12.33;55.34;99619.70;1721969;82;22464;-40
2021/01/19 00:46:23;;;;;;;27.27;13.60;;;;;;;-11.94;55.00;99657.47;1704298;82;21159;-39
2021/01/19 00:48:52;;;;;;;26.37;14.10;;;;;;;-11.91;54.93;99653.13;1707905;82;21261;-40
2021/01/19 00:51:20;;;;;;;34.05;13.85;;;;;;;-11.82;54.77;99647.69;1705449;82;21127;-39
2021/01/19 00:53:48;;;;;;;30.20;14.63;;;;;;;-11.85;54.59;99652.80;1676099;84;22178;-40
2021/01/19 00:56:18;;;;;;;27.98;15.30;;;;;;;-11.85;54.70;99654.62;1682488;84;21138;-39
2021/01/19 00:58:46;;;;;;;29.40;13.58;;;;;;;-11.89;54.45;99650.31;1667396;84;21561;-39
2021/01/19 01:01:14;;;;;;;30.02;13.40;;;;;;;-11.95;54.69;99653.75;1672208;84;23525;-40
2021/01/19 01:03:43;;;;;;;29.63;14.15;;;;;;;-11.98;54.79;99654.17;1667497;84;21676;-39
2021/01/19 01:06:17;;;;;;;29.05;14.85;;;;;;;-12.04;54.78;99647.95;1664057;84;21052;-39
2021/01/19 01:08:47;;;;;;;24.27;11.73;;;;;;;-12.12;54.89;99653.42;1674001;84;21158;-40
2021/01/19 01:11:15;;;;;;;26.75;12.93;;;;;;;-12.60;54.97;99574.59;1717660;82;21171;-40
2021/01/19 01:13:44;;;;;;;26.87;13.50;;;;;;;-12.16;55.02;99652.23;1719039;82;21195;-39
2021/01/19 01:16:14;;;;;;;29.23;13.85;;;;;;;-12.20;55.12;99649.73;1709588;81;21629;-40
2021/01/19 01:18:41;;;;;;;27.27;13.62;;;;;;;-12.20;55.26;99646.31;1708973;82;26943;-40
2021/01/19 01:21:11;;;;;;;24.67;12.37;;;;;;;-12.16;55.04;99640.47;1706781;82;21181;-40
2021/01/19 01:23:39;;;;;;;;;;;;;;;-12.20;54.90;99647.12;1708710;82;21200;-40
2021/01/19 01:26:07;;;;;;;23.38;11.88;;;;;;;-12.28;54.75;99644.70;1706075;81;21285;-40
2021/01/19 01:28:36;;;;;;;28.42;13.83;;;;;;;-12.41;55.17;99651.27;1696523;82;21048;-40
2021/01/19 01:31:04;;;;;;;25.40;12.85;;;;;;;-12.39;55.10;99651.36;1710151;82;21186;-39
2021/01/19 01:33:33;;;;;;;24.12;12.60;;;;;;;-12.34;55.17;99652.86;1723472;82;21189;-40
2021/01/19 01:36:01;;;;;;;24.57;12.35;;;;;;;-12.29;54.90;99653.55;1717144;82;21477;-40
2021/01/19 01:38:30;;;;;;;22.20;10.90;;;;;;;-12.31;54.68;99655.58;1715623;82;21203;-40
2021/01/19 01:40:58;;;;;;;24.65;13.18;;;;;;;-12.34;54.50;99659.39;1736788;82;21178;-40
2021/01/19 01:43:27;;;;;;;29.18;13.28;;;;;;;-12.44;54.37;99660.84;1718342;82;21920;-39
2021/01/19 01:45:57;;;;;;;28.42;13.20;;;;;;;-12.49;54.30;99652.80;1720573;82;21111;-40
2021/01/19 01:48:25;;;;;;;21.33;10.17;;;;;;;-12.45;54.13;99661.83;1715954;82;21174;-39
2021/01/19 01:50:54;;;;;;;21.47;12.40;;;;;;;-12.45;54.13;99661.83;1715917;82;21677;-40
2021/01/19 01:53:22;;;;;;;24.82;12.88;;;;;;;-12.48;53.79;99657.00;1724320;82;21163;-39
2021/01/19 01:55:50;;;;;;;23.57;11.73;;;;;;;-12.51;53.76;99655.61;1736795;82;21139;-39
2021/01/19 01:58:19;;;;;;;24.00;12.37;;;;;;;-12.52;53.33;99657.11;1719754;82;21193;-39
2021/01/19 02:00:51;;;;;;;26.60;13.78;;;;;;;-12.65;53.23;99661.05;1724983;82;21198;-40
2021/01/19 02:03:20;;;;;;;27.30;13.58;;;;;;;-12.82;53.39;99664.06;1721872;82;21372;-40
2021/01/19 02:05:48;;;;;;;26.02;12.25;;;;;;;-12.96;53.59;99655.92;1716788;82;21205;-40
2021/01/19 02:09:03;;;;;;;25.85;13.15;;;;;;;-13.05;53.91;99653.22;1713886;82;21126;-40
2021/01/19 02:11:48;;;;;;;32.10;13.83;;;;;;;-13.09;54.18;99654.62;1719258;82;21221;-40
2021/01/19 02:14:31;;;;;;;27.65;13.05;;;;;;;-13.09;54.09;99647.30;1718858;82;21170;-40
2021/01/19 02:17:25;;;;;;;25.50;13.00;;;;;;;-12.97;54.17;99650.40;1726221;82;21444;-40
2021/01/19 02:20:17;;;;;;;27.25;13.60;;;;;;;-12.75;53.93;99651.52;1718230;82;21114;-40
2021/01/19 02:23:10;;;;;;;25.32;12.75;;;;;;;-13.13;53.22;99580.41;1717724;82;20976;-41
2021/01/19 02:26:18;;;;;;;26.17;12.80;;;;;;;-12.70;53.10;99642.58;1720252;82;21150;-41
2021/01/19 02:28:59;;;;;;;27.52;13.68;;;;;;;-12.71;53.03;99633.94;1725140;82;21147;-41
2021/01/19 02:31:49;;;;;;;24.47;12.55;;;;;;;-13.17;52.90;99553.13;1711201;82;21239;-41
2021/01/19 02:34:41;;;;;;;25.40;12.82;;;;;;;-12.71;52.80;99632.63;1704230;82;21616;-40
2021/01/19 02:37:16;;;;;;;30.00;13.32;;;;;;;-12.74;52.68;99636.97;1731474;82;21048;-40
2021/01/19 02:40:03;;;;;;;25.37;13.50;;;;;;;-12.83;52.61;99645.48;1704061;82;21170;-40
2021/01/19 02:42:45;;;;;;;27.05;13.50;;;;;;;-12.87;52.86;99647.39;1699380;82;21210;-40
2021/01/19 02:45:13;;;;;;;32.35;14.13;;;;;;;-12.84;52.81;99650.42;1704703;82;21211;-40
2021/01/19 02:47:42;;;;;;;24.05;11.83;;;;;;;-12.81;52.49;99647.90;1706504;81;21194;-40
2021/01/19 02:50:12;;;;;;;30.85;14.45;;;;;;;-12.81;52.49;99647.90;1678551;84;21170;-40
2021/01/19 02:52:41;;;;;;;28.85;13.35;;;;;;;-12.83;52.84;99644.17;1666699;84;21092;-40
2021/01/19 02:55:11;;;;;;;29.63;14.47;;;;;;;-12.75;52.81;99646.30;1713302;82;21163;-40
2021/01/19 02:58:07;;;;;;;29.23;14.60;;;;;;;-12.72;52.58;99645.38;1717630;82;21214;-40
2021/01/19 03:00:49;;;;;;;29.50;14.65;;;;;;;-12.85;52.70;99639.67;1712172;82;21229;-41
2021/01/19 03:03:17;;;;;;;28.25;12.65;;;;;;;-13.01;52.93;99641.38;1703022;82;21162;-41
2021/01/19 03:05:46;;;;;;;25.20;12.47;;;;;;;-13.08;53.18;99638.47;1705201;82;21406;-41
2021/01/19 03:08:14;;;;;;;21.10;10.98;;;;;;;-13.20;53.41;99636.17;1705393;82;21178;-41
2021/01/19 03:10:43;;;;;;;29.02;13.45;;;;;;;-13.31;53.74;99638.36;1704421;82;21373;-41
2021/01/19 03:13:12;;;;;;;29.70;13.93;;;;;;;-13.32;53.90;99630.76;1698524;82;21040;-41
2021/01/19 03:15:40;;;;;;;;;;;;;;;-13.38;54.15;99635.45;1712294;82;21322;-40
2021/01/19 03:18:10;;;;;;;26.27;13.20;;;;;;;-13.40;54.39;99642.16;1710434;82;20298;-41
2021/01/19 03:20:38;;;;;;;24.80;12.30;;;;;;;-13.46;54.68;99634.34;1705113;83;21629;-41
2021/01/19 03:23:07;;;;;;;25.55;11.08;;;;;;;-13.47;54.88;99637.45;1709649;82;21661;-41
2021/01/19 03:25:35;;;;;;;25.32;12.50;;;;;;;-13.47;55.00;99640.56;1709033;82;21480;-41
2021/01/19 03:28:04;;;;;;;31.17;14.83;;;;;;;-13.46;55.18;99636.95;1710655;82;21009;-41
2021/01/19 03:30:32;;;;;;;28.47;13.90;;;;;;;-13.51;55.28;99636.74;1704249;82;21471;-41
2021/01/19 03:33:01;;;;;;;29.90;14.45;;;;;;;-13.49;55.43;99638.63;1706777;82;21195;-41
2021/01/19 03:35:29;;;;;;;29.55;13.53;;;;;;;-13.45;55.71;99643.25;1705972;82;21283;-41
2021/01/19 03:37:57;;;;;;;24.82;11.18;;;;;;;-13.38;55.66;99641.97;1705930;82;21207;-41
2021/01/19 03:40:26;;;;;;;25.02;12.30;;;;;;;-13.38;55.82;99642.78;1705322;82;21187;-41
2021/01/19 03:42:54;;;;;;;28.12;13.83;;;;;;;-13.43;56.01;99634.75;1707145;82;21052;-41
2021/01/19 03:45:22;;;;;;;29.27;14.60;;;;;;;-13.94;56.18;99561.44;1704390;82;21198;-41
2021/01/19 03:47:50;;;;;;;32.13;13.95;;;;;;;-13.43;56.30;99636.55;1703338;82;21208;-41
2021/01/19 03:50:19;;;;;;;30.25;14.38;;;;;;;-13.33;56.37;99644.30;1701071;82;21346;-40
2021/01/19 03:52:47;;;;;;;31.12;13.58;;;;;;;-13.26;56.21;99635.16;1710217;82;21586;-41
2021/01/19 03:55:16;;;;;;;24.05;11.35;;;;;;;-13.28;56.30;99636.68;1703942;82;21183;-40
2021/01/19 03:57:44;;;;;;;24.18;12.80;;;;;;;-13.21;56.46;99635.36;1704415;82;21163;-40
2021/01/19 04:00:14;;;;;;;24.60;12.78;;;;;;;-13.15;56.30;99634.58;1675377;84;21317;-40
2021/01/19 04:02:42;;;;;;;21.25;10.98;;;;;;;-13.11;56.29;99639.69;1674121;84;21080;-41
2021/01/19 04:05:12;;;;;;;20.05;9.53;;;;;;;-13.00;56.53;99637.77;1669254;84;21223;-41
2021/01/19 04:07:40;;;;;;;18.45;8.10;;;;;;;-12.92;56.41;99641.97;1667111;84;21186;-41
2021/01/19 04:10:12;;;;;;;23.60;11.28;;;;;;;-12.94;56.31;99631.75;1666431;86;21198;-40
2021/01/19 04:12:42;;;;;;;19.87;9.30;;;;;;;-12.99;56.18;99625.03;1711998;82;22306;-41
2021/01/19 04:15:12;;;;;;;19.73;9.43;;;;;;;-12.95;56.48;99627.53;1705524;82;21224;-41
2021/01/19 04:17:40;;;;;;;19.70;10.43;;;;;;;-12.88;56.24;99630.15;1706429;82;21163;-41
2021/01/19 04:20:10;;;;;;;21.00;9.58;;;;;;;-12.93;56.12;99627.34;1713303;82;21166;-40
2021/01/19 04:22:38;;;;;;;;;;;;;;;-13.00;56.11;99623.41;1704186;83;21194;-41
2021/01/19 04:25:08;;;;;;;22.58;10.13;;;;;;;-13.05;55.99;99627.13;1695199;83;21220;-40
2021/01/19 04:27:36;;;;;;;19.05;9.50;;;;;;;-13.14;55.77;99622.34;1714993;81;21150;-41
2021/01/19 04:30:10;;;;;;;19.37;10.28;;;;;;;-13.18;55.78;99623.25;1707198;82;21402;-41
2021/01/19 04:32:39;;;;;;;20.27;10.63;;;;;;;-13.23;55.89;99628.26;1711019;82;21182;-41
2021/01/19 04:35:09;;;;;;;22.48;10.78;;;;;;;-13.24;55.94;99620.13;1713730;82;21210;-41
2021/01/19 04:37:37;;;;;;;19.00;10.10;;;;;;;-13.22;55.80;99624.66;1720292;82;21205;-41
2021/01/19 04:40:07;;;;;;;20.68;9.45;;;;;;;-13.19;55.62;99627.35;1711208;82;21181;-41
2021/01/19 04:42:36;;;;;;;17.12;8.98;;;;;;;-13.18;55.42;99634.18;1719347;82;27752;-41
2021/01/19 04:45:07;;;;;;;21.65;11.00;;;;;;;-13.21;55.47;99634.59;1720905;82;21115;-41
2021/01/19 04:47:36;;;;;;;20.15;10.35;;;;;;;-13.24;55.42;99634.47;1729139;82;21151;-40
2021/01/19 04:50:10;;;;;;;14.15;8.05;;;;;;;-13.23;55.48;99639.99;1711624;82;21605;-41
2021/01/19 04:52:43;;;;;;;17.55;9.83;;;;;;;-13.14;55.33;99646.62;1713070;82;21071;-40
2021/01/19 04:55:18;;;;;;;20.40;10.65;;;;;;;-13.06;55.12;99644.27;1712601;83;21214;-41
2021/01/19 04:57:46;;;;;;;20.45;9.85;;;;;;;-13.01;54.94;99641.38;1719364;82;21094;-41
2021/01/19 05:00:16;;;;;;;18.05;9.53;;;;;;;-12.93;54.70;99650.33;1697486;82;21577;-40
2021/01/19 05:03:12;;;;;;;20.70;10.30;;;;;;;-12.90;54.41;99651.22;1718778;82;22287;-41
2021/01/19 05:06:07;;;;;;;23.57;10.20;;;;;;;-12.89;54.08;99646.80;1719199;81;21843;-41
2021/01/19 05:08:42;;;;;;;20.30;10.60;;;;;;;-13.04;53.97;99640.98;1703524;82;21198;-41
2021/01/19 05:11:27;;;;;;;20.75;10.68;;;;;;;-12.96;53.89;99657.23;1710935;82;21210;-41
2021/01/19 05:14:00;;;;;;;22.22;10.53;;;;;;;-12.93;53.77;99658.66;1713503;82;21146;-41
2021/01/19 05:16:34;;;;;;;18.62;9.48;;;;;;;-12.96;53.55;99663.75;1714168;82;21422;-41
2021/01/19 05:19:04;;;;;;;22.58;11.60;;;;;;;-13.05;53.44;99659.73;1727782;82;21056;-41
2021/01/19 05:21:39;;;;;;;19.92;11.20;;;;;;;-13.10;53.37;99654.81;1721993;82;21684;-40
2021/01/19 05:24:08;;;;;;;24.05;10.53;;;;;;;-13.12;53.35;99658.17;1727529;82;21682;-41
2021/01/19 05:26:39;;;;;;;22.55;10.48;;;;;;;-13.14;53.26;99651.84;1736697;82;21174;-41
2021/01/19 05:29:08;;;;;;;23.02;11.00;;;;;;;-13.14;53.20;99651.03;1718379;82;21199;-41
2021/01/19 05:31:36;;;;;;;25.40;11.70;;;;;;;-13.21;53.22;99656.77;1709702;82;21059;-40
2021/01/19 05:34:10;;;;;;;23.42;11.12;;;;;;;-13.30;53.36;99666.05;1719543;82;21111;-41
2021/01/19 05:36:47;;;;;;;20.95;11.28;;;;;;;-13.37;53.31;99656.63;1699787;82;21218;-41
2021/01/19 05:39:20;;;;;;;23.87;11.48;;;;;;;-13.47;53.43;99664.83;1707625;82;21167;-41
2021/01/19 05:41:52;;;;;;;23.40;11.93;;;;;;;-13.60;53.61;99671.81;1732817;82;21426;-41
2021/01/19 05:44:30;;;;;;;24.20;12.20;;;;;;;-13.75;53.87;99674.57;1706872;81;21060;-41
2021/01/19 05:47:05;;;;;;;21.37;11.33;;;;;;;-13.80;54.21;99673.05;1707385;82;21244;-41
2021/01/19 05:49:42;;;;;;;29.82;12.82;;;;;;;-13.77;54.14;99671.34;1708902;82;21143;-40
2021/01/19 05:52:16;;;;;;;25.17;11.97;;;;;;;-13.80;54.27;99682.97;1711491;82;21637;-40
2021/01/19 05:54:50;;;;;;;26.77;12.60;;;;;;;-13.75;54.20;99677.17;1691767;82;21388;-40
2021/01/19 05:57:23;;;;;;;33.92;15.28;;;;;;;-13.70;54.28;99680.78;1713866;82;21778;-40
2021/01/19 06:00:03;;;;;;;33.13;16.10;;;;;;;-13.64;54.21;99686.21;1722112;82;21698;-41
2021/01/19 06:02:41;;;;;;;33.55;15.48;;;;;;;-13.61;54.10;99678.02;1710222;82;21147;-41
2021/01/19 06:05:14;;;;;;;33.45;14.78;;;;;;;-13.54;53.94;99680.13;1715686;82;22212;-40
2021/01/19 06:07:48;;;;;;;31.07;13.70;;;;;;;-13.49;53.73;99684.26;1713563;82;21374;-41
2021/01/19 06:10:21;;;;;;;32.60;16.07;;;;;;;-13.46;53.61;99691.71;1704760;84;21155;-41
2021/01/19 06:12:50;;;;;;;30.45;14.70;;;;;;;-13.45;53.61;99699.81;1727943;82;21183;-40
2021/01/19 06:15:30;;;;;;;34.55;14.95;;;;;;;-13.42;53.54;99697.64;1714620;82;21202;-41
2021/01/19 06:17:59;;;;;;;32.88;15.85;;;;;;;-13.38;53.43;99698.04;1708282;82;21711;-42
2021/01/19 06:20:27;;;;;;;31.33;15.90;;;;;;;-13.32;53.18;99688.13;1706643;82;21274;-42
2021/01/19 06:23:04;;;;;;;31.07;14.87;;;;;;;-13.35;53.15;99694.53;1710974;82;21099;-42
2021/01/19 06:25:33;;;;;;;37.58;16.97;;;;;;;-13.34;53.06;99697.94;1707326;82;21219;-42
2021/01/19 06:28:12;;;;;;;36.40;15.87;;;;;;;-13.30;52.98;99696.55;1707049;82;21847;-42
2021/01/19 06:30:40;;;;;;;32.48;14.55;;;;;;;-13.22;52.61;99698.99;1710305;82;21211;-42
2021/01/19 06:33:10;;;;;;;27.77;14.10;;;;;;;-13.43;52.77;99687.39;1726964;82;21636;-42
2021/01/19 06:35:42;;;;;;;30.37;13.58;;;;;;;-13.41;52.94;99702.35;1746731;82;21166;-42
2021/01/19 06:38:10;;;;;;;29.10;14.07;;;;;;;-13.49;53.29;99708.53;1729741;82;21151;-42
2021/01/19 06:40:39;;;;;;;31.33;13.88;;;;;;;-13.61;53.70;99708.00;1712585;83;21648;-42
2021/01/19 06:43:07;;;;;;;26.95;13.22;;;;;;;-13.64;54.10;99707.06;1634153;85;21209;-42
2021/01/19 06:48:34;;;;;;;20.57;9.93;;;;;;;-13.64;54.60;99713.09;1773936;78;22672;-43
2021/01/19 06:51:04;;;;;;;24.05;12.30;;;;;;;-13.77;54.96;99718.25;1721968;82;21036;-43
2021/01/19 06:53:55;;;;;;;25.80;12.73;;;;;;;-13.91;55.15;99712.67;1747973;82;21366;-43
2021/01/19 06:56:27;;;;;;;27.20;12.05;;;;;;;-13.97;55.40;99712.95;1737083;82;21080;-43
2021/01/19 06:58:56;;;;;;;24.65;12.10;;;;;;;-13.84;55.53;99711.70;1739597;82;21048;-43
2021/01/19 07:01:27;;;;;;;22.30;11.65;;;;;;;-13.82;55.42;99713.63;1722151;82;21808;-43
2021/01/19 07:04:24;;;;;;;23.80;12.13;;;;;;;-13.98;55.70;99716.53;1731459;82;21099;-43
2021/01/19 07:07:09;;;;;;;21.17;11.15;;;;;;;-14.12;55.96;99715.66;1730149;82;21117;-43
2021/01/19 07:10:06;;;;;;;25.48;12.00;;;;;;;-14.19;56.24;99719.24;1703800;82;21577;-43
2021/01/19 07:13:08;;;;;;;23.40;11.48;;;;;;;-14.15;56.24;99730.88;1735921;82;21031;-43
2021/01/19 07:16:05;;;;;;;22.48;11.22;;;;;;;-14.19;56.31;99723.95;1734473;82;21700;-42
2021/01/19 07:19:04;;;;;;;21.93;11.35;;;;;;;-14.23;56.38;99720.63;1747589;81;21170;-42
2021/01/19 07:21:46;;;;;;;23.12;11.03;;;;;;;-14.19;56.69;99724.45;1720712;81;21194;-42
2021/01/19 07:24:20;;;;;;;20.55;10.90;;;;;;;-14.06;56.58;99719.80;1691671;82;21455;-41
2021/01/19 07:26:49;;;;;;;22.40;11.55;;;;;;;-13.95;56.42;99721.88;1717800;83;21683;-41
2021/01/19 07:29:18;;;;;;;22.82;11.55;;;;;;;-13.97;56.21;99714.25;1719007;82;21210;-41
2021/01/19 07:31:46;;;;;;;26.85;12.47;;;;;;;-13.91;56.29;99718.69;1730121;82;21138;-42
2021/01/19 07:34:14;;;;;;;23.70;11.80;;;;;;;-13.83;56.16;99721.13;1718207;83;21198;-42
2021/01/19 07:36:53;;;;;;;27.25;12.50;;;;;;;-13.73;55.84;99722.88;1710868;82;21608;-41
2021/01/19 07:39:23;;;;;;;21.95;10.63;;;;;;;-13.67;55.73;99716.90;1741748;82;21708;-41
2021/01/19 07:41:52;;;;;;;22.82;11.48;;;;;;;-13.63;55.68;99721.22;1748005;82;21158;-41
2021/01/19 07:44:23;;;;;;;20.60;9.80;;;;;;;-13.59;55.50;99717.22;1748174;81;21162;-41
2021/01/19 07:46:53;;;;;;;29.32;12.78;;;;;;;-13.56;55.54;99723.36;1724495;82;21283;-42
2021/01/19 07:49:31;;;;;;;25.68;11.50;;;;;;;-13.44;55.41;99715.77;1719113;82;21174;-42
2021/01/19 07:52:12;;;;;;;21.93;11.95;;;;;;;-13.37;55.32;99714.00;1719694;82;21067;-41
2021/01/19 07:54:41;;;;;;;26.07;11.35;;;;;;;-13.17;55.26;99718.77;1718965;83;21162;-42
2021/01/19 07:57:14;;;;;;;17.55;9.33;;;;;;;-12.87;54.80;99729.10;1719210;83;21727;-42
2021/01/19 07:59:44;;;;;;;25.00;12.13;;;;;;;-12.70;53.90;99723.50;1719147;82;21206;-41
2021/01/19 08:02:24;;;;;;;24.87;13.10;;;;;;;-12.72;53.85;99717.66;1730882;82;21028;-42
2021/01/19 08:05:05;;;;;;;47.70;25.30;;;;;;;-12.66;53.71;99723.40;1738246;82;21498;-42
2021/01/19 08:07:41;;;;;;;25.72;12.98;;;;;;;-12.50;54.06;99739.48;1736098;82;21629;-42
2021/01/19 08:10:26;;;;;;;25.37;12.70;;;;;;;-12.32;52.88;99732.33;1737829;82;21181;-42
2021/01/19 08:12:57;;;;;;;84.30;37.17;;;;;;;-12.31;53.03;99735.25;1743806;82;21584;-42
2021/01/19 08:15:33;;;;;;;100.53;47.20;;;;;;;-12.13;52.84;99734.12;1728050;82;21916;-42
2021/01/19 08:18:02;;;;;;;37.45;20.05;;;;;;;-11.97;52.62;99739.42;1720297;82;21150;-42
2021/01/19 08:20:35;;;;;;;25.17;12.98;;;;;;;-11.72;52.54;99742.17;1744769;82;21158;-42
2021/01/19 08:23:16;;;;;;;23.67;12.33;;;;;;;-11.55;50.90;99744.59;1748240;82;21159;-42
2021/01/19 08:25:45;;;;;;;23.55;12.53;;;;;;;-11.61;50.96;99746.72;1720331;82;21947;-41
2021/01/19 08:28:14;;;;;;;22.82;11.75;;;;;;;-11.69;51.10;99746.45;1718681;82;21211;-42
2021/01/19 08:30:44;;;;;;;28.87;13.15;;;;;;;-11.80;51.04;99743.69;1718901;82;21157;-42
2021/01/19 08:33:13;;;;;;;26.12;12.75;;;;;;;-11.84;51.49;99743.30;1727205;82;21597;-42
2021/01/19 08:35:41;;;;;;;29.72;13.88;;;;;;;-11.72;51.49;99742.17;1718878;82;21178;-42
2021/01/19 08:38:09;;;;;;;27.82;13.62;;;;;;;-11.54;51.39;99739.66;1669218;83;21287;-42
2021/01/19 08:40:40;;;;;;;28.50;14.03;;;;;;;-11.35;50.84;99735.35;1713375;83;21170;-42
2021/01/19 08:43:09;;;;;;;27.73;13.75;;;;;;;-11.30;50.54;99721.95;1692368;83;20976;-42
2021/01/19 08:45:40;;;;;;;31.65;14.85;;;;;;;-11.31;50.33;99732.11;1742018;82;21620;-42
2021/01/19 08:48:10;;;;;;;32.28;14.63;;;;;;;-11.35;50.30;99719.66;1710688;82;21131;-42
2021/01/19 08:50:41;;;;;;;31.77;15.72;;;;;;;-11.34;50.46;99729.11;1710909;82;21203;-42
2021/01/19 08:53:12;;;;;;;30.32;14.83;;;;;;;-11.25;50.70;99725.25;1726989;82;21052;-42
2021/01/19 08:55:44;;;;;;;25.95;13.30;;;;;;;-11.06;50.39;99723.02;1704923;84;21166;-42
2021/01/19 08:58:21;;;;;;;26.50;12.10;;;;;;;-10.95;50.07;99727.59;1704958;82;21139;-42
2021/01/19 09:00:50;;;;;;;28.67;15.32;;;;;;;-10.89;49.43;99731.97;1705098;82;21421;-42
2021/01/19 09:03:18;;;;;;;27.77;14.70;;;;;;;-10.93;49.42;99729.98;1704820;84;21420;-42
2021/01/19 09:05:48;;;;;;;26.35;13.55;;;;;;;-10.87;49.47;99724.71;1702028;83;21159;-42
2021/01/19 09:08:18;;;;;;;29.10;13.68;;;;;;;-10.80;49.57;99725.48;1704849;84;21898;-42
2021/01/19 09:10:46;;;;;;;27.30;13.80;;;;;;;-10.74;48.99;99716.75;1706207;82;21202;-42
2021/01/19 09:13:19;;;;;;;34.15;16.35;;;;;;;-10.65;48.98;99712.08;1723915;82;21183;-42
2021/01/19 09:15:47;;;;;;;26.52;14.68;;;;;;;-10.58;49.16;99711.00;1705377;82;21272;-42
2021/01/19 09:18:16;;;;;;;31.95;16.23;;;;;;;-10.50;48.98;99706.52;1722612;82;21099;-42
2021/01/19 09:20:47;;;;;;;35.58;16.73;;;;;;;-10.43;48.50;99710.68;1705193;82;21190;-42
2021/01/19 09:23:20;;;;;;;31.25;15.10;;;;;;;-10.39;48.60;99714.47;1705234;82;21179;-40
2021/01/19 09:25:50;;;;;;;25.48;11.95;;;;;;;-10.32;48.67;99717.84;1733769;82;21167;-40
2021/01/19 09:28:18;;;;;;;30.90;14.68;;;;;;;-10.24;47.94;99713.63;1722710;82;22317;-40
2021/01/19 09:30:46;;;;;;;27.85;14.58;;;;;;;-10.26;48.06;99712.26;1710822;82;21195;-40
2021/01/19 09:33:14;;;;;;;33.90;17.20;;;;;;;-10.34;47.90;99708.58;1733111;82;21032;-40
2021/01/19 09:35:44;;;;;;;29.40;15.85;;;;;;;-10.36;48.05;99704.89;1713350;82;21162;-40
2021/01/19 09:38:17;;;;;;;27.82;13.95;;;;;;;-10.36;48.01;99702.27;1705435;82;21559;-40
2021/01/19 09:40:45;;;;;;;28.55;14.33;;;;;;;-10.41;47.99;99702.11;1705302;82;21370;-40
2021/01/19 09:43:16;;;;;;;31.80;16.73;;;;;;;-10.42;48.34;99703.63;1704797;82;21167;-40
2021/01/19 09:45:44;;;;;;;33.10;17.15;;;;;;;-10.44;48.39;99705.64;1709787;82;21063;-40
2021/01/19 09:48:13;;;;;;;34.60;15.98;;;;;;;-10.29;48.74;99703.50;1708506;82;21577;-40
2021/01/19 09:50:42;;;;;;;29.37;15.68;;;;;;;-10.02;48.04;99701.41;1719305;82;21167;-40
2021/01/19 09:53:14;;;;;;;34.13;16.93;;;;;;;-9.76;47.27;99706.34;1741799;82;21298;-40
2021/01/19 09:55:42;;;;;;;28.25;14.63;;;;;;;-9.65;47.24;99710.06;1717723;82;21158;-40
2021/01/19 09:58:12;;;;;;;32.05;14.35;;;;;;;-9.57;46.72;99701.89;1725012;82;20973;-40
2021/01/19 10:00:41;;;;;;;36.48;16.85;;;;;;;-9.49;46.49;99698.98;1713277;82;21603;-40
2021/01/19 10:03:20;;;;;;;29.95;14.33;;;;;;;-9.38;46.44;99692.97;1712935;83;21538;-40
2021/01/19 10:06:09;;;;;;;30.55;15.05;;;;;;;-9.36;46.14;99694.36;1712953;82;21383;-40
2021/01/19 10:08:38;;;;;;;26.93;13.35;;;;;;;-9.40;45.91;99696.34;1712725;83;21040;-40
2021/01/19 10:11:06;;;;;;;21.25;11.85;;;;;;;-9.39;46.15;99692.16;1713001;82;21633;-40
2021/01/19 10:13:34;;;;;;;28.98;14.80;;;;;;;-9.33;45.73;99693.91;1678289;85;21209;-40
2021/01/19 10:16:07;;;;;;;26.77;14.30;;;;;;;-9.36;45.69;99684.37;1666596;84;21163;-40
2021/01/19 10:18:36;;;;;;;31.20;14.73;;;;;;;-9.32;46.43;99690.27;1666575;84;21648;-41
2021/01/19 10:21:06;;;;;;;31.50;15.70;;;;;;;-9.05;45.73;99684.66;1666299;86;21625;-40
2021/01/19 10:23:34;;;;;;;29.15;14.78;;;;;;;-8.97;45.03;99681.20;1666443;84;21160;-41
2021/01/19 10:26:08;;;;;;;25.12;13.43;;;;;;;-8.99;45.51;99679.80;1666205;86;21060;-41
2021/01/19 10:28:45;;;;;;;24.12;12.98;;;;;;;-8.85;45.09;99681.20;1676343;84;21623;-41
2021/01/19 10:31:17;;;;;;;27.10;13.70;;;;;;;-8.78;45.02;99666.66;1672249;84;22041;-40
2021/01/19 10:34:02;;;;;;;25.57;13.72;;;;;;;-8.74;44.19;99663.36;1674297;84;21190;-40
2021/01/19 10:36:32;;;;;;;24.63;12.95;;;;;;;-8.59;44.49;99663.72;1666408;84;21158;-41
2021/01/19 10:39:08;;;;;;;24.77;13.10;;;;;;;-8.31;44.58;99667.48;1666285;86;21641;-41
2021/01/19 10:41:36;;;;;;;23.40;12.70;;;;;;;-7.93;44.14;99654.09;1666334;86;21652;-41
2021/01/19 10:44:05;;;;;;;;;;;;;;;-7.52;41.87;99657.55;1668696;86;21258;-41
2021/01/19 10:46:34;;;;;;;30.35;14.43;;;;;;;-7.48;41.94;99650.25;1666462;84;20334;-40
2021/01/19 10:49:09;;;;;;;26.05;13.22;;;;;;;-7.47;41.58;99648.42;1661271;84;21183;-40
2021/01/19 10:51:39;;;;;;;26.52;12.78;;;;;;;-7.38;40.90;99648.84;1658905;85;21222;-41
2021/01/19 10:57:06;;;;;;;24.12;13.40;;;;;;;-7.65;41.14;99640.17;1835358;78;22870;-41
2021/01/19 10:59:35;;;;;;;24.92;12.85;;;;;;;-7.85;41.26;99635.84;1800170;79;21020;-40
2021/01/19 11:02:04;;;;;;;22.00;12.15;;;;;;;-7.93;41.14;99629.61;1777980;79;21387;-40
2021/01/19 11:04:33;;;;;;;26.27;12.58;;;;;;;-7.91;41.47;99628.88;1776912;79;21758;-40
2021/01/19 11:07:01;;;;;;;23.10;13.30;;;;;;;-7.97;41.26;99620.59;1775898;80;20996;-40
2021/01/19 11:09:29;;;;;;;23.50;12.35;;;;;;;-8.04;41.05;99620.73;1775849;80;21085;-40
2021/01/19 11:11:59;;;;;;;23.73;12.75;;;;;;;-7.90;40.88;99621.27;1803345;79;21040;-40
2021/01/19 11:14:27;;;;;;;26.87;14.63;;;;;;;-7.78;40.88;99625.97;1807743;79;21345;-40
2021/01/19 11:16:55;;;;;;;28.07;13.83;;;;;;;-7.67;40.42;99622.52;1791997;79;21039;-40
2021/01/19 11:19:24;;;;;;;27.55;13.00;;;;;;;-7.55;40.17;99615.36;1775949;80;21144;-40
2021/01/19 11:21:53;;;;;;;20.08;10.60;;;;;;;-7.34;39.31;99615.73;1776040;78;21158;-41
2021/01/19 11:24:22;;;;;;;24.20;12.60;;;;;;;-7.18;38.32;99609.70;1789196;79;21127;-40
2021/01/19 11:26:50;;;;;;;19.45;10.20;;;;;;;-7.14;37.59;99599.77;1776341;79;21381;-40
2021/01/19 11:29:20;;;;;;;;;;;;;;;-7.08;36.92;99600.14;1776531;80;21134;-41
2021/01/19 11:31:48;;;;;;;21.60;11.48;;;;;;;-7.04;36.85;99600.45;1790306;79;20184;-40
2021/01/19 11:34:18;;;;;;;22.27;11.53;;;;;;;-6.56;37.78;99595.91;1791017;79;21047;-40
2021/01/19 11:36:46;;;;;;;15.55;8.93;;;;;;;-6.56;37.78;99595.91;1775899;80;21210;-40
2021/01/19 11:39:14;;;;;;;19.32;11.28;;;;;;;-6.15;37.17;99598.05;1780678;79;21303;-40
2021/01/19 11:41:43;;;;;;;26.60;13.83;;;;;;;-5.91;36.38;99590.72;1781960;79;22205;-40